createdAt,value
2018-11-12T00:02:16.442Z,9.00
2018-11-12T00:05:20.683Z,9.00
2018-11-12T00:08:24.961Z,9.00
2018-11-12T00:11:29.190Z,8.90
2018-11-12T00:14:33.481Z,8.90
2018-11-12T00:17:37.760Z,8.90
2018-11-12T00:20:42.026Z,8.80
2018-11-12T00:23:46.585Z,8.80
2018-11-12T00:26:50.835Z,8.80
2018-11-12T00:29:55.099Z,8.70
2018-11-12T00:32:59.361Z,8.70
2018-11-12T00:36:03.614Z,8.70
2018-11-12T00:39:11.057Z,8.60
2018-11-12T00:42:15.331Z,8.60
2018-11-12T00:45:19.586Z,8.50
2018-11-12T00:48:23.837Z,8.50
2018-11-12T00:51:28.201Z,8.50
2018-11-12T00:54:32.454Z,8.40
2018-11-12T00:57:36.703Z,8.40
2018-11-12T01:00:40.957Z,8.40
2018-11-12T01:03:45.207Z,8.40
2018-11-12T01:06:49.484Z,8.40
2018-11-12T01:09:53.690Z,8.40
2018-11-12T01:12:57.950Z,8.30
2018-11-12T01:16:02.282Z,8.30
2018-11-12T01:19:06.732Z,8.30
2018-11-12T01:22:10.969Z,8.30
2018-11-12T01:25:15.712Z,8.30
2018-11-12T01:28:19.955Z,8.30
2018-11-12T01:31:24.215Z,8.30
2018-11-12T01:34:28.446Z,8.30
2018-11-12T01:37:32.701Z,8.30
2018-11-12T01:40:36.943Z,8.30
2018-11-12T01:43:41.182Z,8.30
2018-11-12T01:46:45.425Z,8.30
2018-11-12T01:49:49.698Z,8.30
2018-11-12T01:52:53.961Z,8.30
2018-11-12T01:55:58.221Z,8.30
2018-11-12T01:59:02.469Z,8.30
2018-11-12T02:02:07.267Z,8.30
2018-11-12T02:05:11.661Z,8.20
2018-11-12T02:08:15.889Z,8.20
2018-11-12T02:11:20.156Z,8.20
2018-11-12T02:14:24.485Z,8.20
2018-11-12T02:17:28.739Z,8.20
2018-11-12T02:20:32.968Z,8.20
2018-11-12T02:23:37.448Z,8.20
2018-11-12T02:26:41.791Z,8.20
2018-11-12T02:29:46.040Z,8.10
2018-11-12T02:32:50.324Z,8.20
2018-11-12T02:35:54.570Z,8.10
2018-11-12T02:38:58.842Z,8.10
2018-11-12T02:42:03.151Z,8.00
2018-11-12T02:45:08.631Z,8.10
2018-11-12T02:48:12.861Z,8.00
2018-11-12T02:51:17.118Z,8.00
2018-11-12T02:54:21.345Z,8.00
2018-11-12T02:57:25.633Z,7.90
2018-11-12T03:00:29.878Z,7.90
2018-11-12T03:03:34.135Z,7.90
2018-11-12T03:06:38.390Z,7.90
2018-11-12T03:09:42.646Z,7.90
2018-11-12T03:12:46.890Z,7.80
2018-11-12T03:15:51.139Z,7.80
2018-11-12T03:18:55.368Z,7.80
2018-11-12T03:21:59.628Z,7.80
2018-11-12T03:25:03.981Z,7.70
2018-11-12T03:28:08.243Z,7.70
2018-11-12T03:31:12.470Z,7.70
2018-11-12T03:34:16.726Z,7.70
2018-11-12T03:37:21.007Z,7.70
2018-11-12T03:40:25.269Z,7.70
2018-11-12T03:43:29.535Z,7.70
2018-11-12T03:46:33.817Z,7.70
2018-11-12T03:49:38.077Z,7.70
2018-11-12T03:52:42.468Z,7.70
2018-11-12T03:55:46.732Z,7.60
2018-11-12T03:58:51.013Z,7.70
2018-11-12T04:01:55.236Z,7.60
2018-11-12T04:04:59.487Z,7.60
2018-11-12T04:08:03.724Z,7.60
2018-11-12T04:11:07.981Z,7.60
2018-11-12T04:14:12.958Z,7.60
2018-11-12T04:17:17.213Z,7.60
2018-11-12T04:20:22.932Z,7.70
2018-11-12T04:23:27.280Z,7.70
2018-11-12T04:26:31.578Z,7.70
2018-11-12T04:29:35.849Z,7.70
2018-11-12T04:32:40.337Z,7.70
2018-11-12T04:35:44.654Z,7.70
2018-11-12T04:38:48.915Z,7.70
2018-11-12T04:41:53.201Z,7.70
2018-11-12T04:44:57.444Z,7.80
2018-11-12T04:48:01.686Z,7.80
2018-11-12T04:51:06.040Z,7.80
2018-11-12T04:54:10.272Z,7.80
2018-11-12T04:57:14.566Z,7.90
2018-11-12T05:00:23.244Z,7.90
2018-11-12T05:03:27.530Z,7.90
2018-11-12T05:06:31.781Z,7.90
2018-11-12T05:09:36.048Z,8.00
2018-11-12T05:12:40.982Z,8.00
2018-11-12T05:15:45.300Z,8.00
2018-11-12T05:18:49.516Z,8.00
2018-11-12T05:21:53.814Z,8.00
2018-11-12T05:24:58.044Z,8.00
2018-11-12T05:28:02.306Z,8.10
2018-11-12T05:31:06.574Z,8.10
2018-11-12T05:34:10.834Z,8.10
2018-11-12T05:37:15.083Z,8.10
2018-11-12T05:40:22.326Z,8.20
2018-11-12T05:43:26.647Z,8.20
2018-11-12T05:46:30.914Z,8.20
2018-11-12T05:49:35.136Z,8.20
2018-11-12T05:52:39.381Z,8.20
2018-11-12T05:55:43.633Z,8.30
2018-11-12T05:58:47.908Z,8.30
2018-11-12T06:01:52.158Z,8.30
2018-11-12T06:04:56.435Z,8.30
2018-11-12T06:08:00.632Z,8.30
2018-11-12T06:11:04.877Z,8.30
2018-11-12T06:14:09.292Z,8.30
2018-11-12T06:17:13.530Z,8.30
2018-11-12T06:20:21.353Z,8.30
2018-11-12T06:23:25.602Z,8.30
2018-11-12T06:26:29.833Z,8.30
2018-11-12T06:29:34.091Z,8.40
2018-11-12T06:32:38.642Z,8.30
2018-11-12T06:35:42.887Z,8.40
2018-11-12T06:38:47.142Z,8.40
2018-11-12T06:41:51.393Z,8.40
2018-11-12T06:44:55.638Z,8.40
2018-11-12T06:48:00.449Z,8.40
2018-11-12T06:51:04.728Z,8.40
2018-11-12T06:54:08.982Z,8.40
2018-11-12T06:57:13.233Z,8.40
2018-11-12T07:00:24.186Z,8.40
2018-11-12T07:03:28.469Z,8.40
2018-11-12T07:06:32.876Z,8.40
2018-11-12T07:09:37.130Z,8.40
2018-11-12T07:12:42.504Z,8.40
2018-11-12T07:15:46.731Z,8.30
2018-11-12T07:18:50.997Z,8.30
2018-11-12T07:21:55.261Z,8.30
2018-11-12T07:24:59.573Z,8.30
2018-11-12T07:28:03.826Z,8.30
2018-11-12T07:31:08.138Z,8.40
2018-11-12T07:34:12.365Z,8.40
2018-11-12T07:37:16.613Z,8.40
2018-11-12T07:40:21.254Z,8.40
2018-11-12T07:43:25.514Z,8.40
2018-11-12T07:46:29.755Z,8.40
2018-11-12T07:49:34.021Z,8.50
2018-11-12T07:52:38.619Z,8.50
2018-11-12T07:55:42.871Z,8.50
2018-11-12T07:58:47.114Z,8.50
2018-11-12T08:01:51.355Z,8.60
2018-11-12T08:04:55.624Z,8.60
2018-11-12T08:07:59.911Z,8.60
2018-11-12T08:11:04.168Z,8.60
2018-11-12T08:14:08.547Z,8.60
2018-11-12T08:17:12.832Z,8.70
2018-11-12T08:20:18.445Z,8.70
2018-11-12T08:23:22.697Z,8.70
2018-11-12T08:26:27.050Z,8.80
2018-11-12T08:29:31.328Z,8.80
2018-11-12T08:32:35.560Z,8.80
2018-11-12T08:35:39.860Z,8.80
2018-11-12T08:38:44.089Z,8.90
2018-11-12T08:41:48.332Z,8.90
2018-11-12T08:44:52.577Z,9.00
2018-11-12T08:47:57.428Z,9.00
2018-11-12T08:51:01.647Z,9.00
2018-11-12T08:54:06.476Z,9.10
2018-11-12T08:57:10.716Z,9.10
2018-11-12T09:00:15.097Z,9.20
2018-11-12T09:03:19.339Z,9.20
2018-11-12T09:06:23.608Z,9.20
2018-11-12T09:09:27.845Z,9.20
2018-11-12T09:12:32.081Z,9.30
2018-11-12T09:15:36.401Z,9.30
2018-11-12T09:18:40.635Z,9.40
2018-11-12T09:21:44.894Z,9.40
2018-11-12T09:24:49.226Z,9.40
2018-11-12T09:27:53.477Z,9.50
2018-11-12T09:30:59.137Z,9.50
2018-11-12T09:34:02.014Z,9.60
2018-11-12T09:37:06.291Z,9.60
2018-11-12T09:40:19.292Z,9.60
2018-11-12T09:43:23.576Z,9.70
2018-11-12T09:46:27.843Z,9.80
2018-11-12T09:49:32.106Z,9.80
2018-11-12T09:52:36.395Z,9.80
2018-11-12T09:55:40.676Z,9.80
2018-11-12T09:58:44.928Z,9.90
2018-11-12T10:01:49.573Z,9.90
2018-11-12T10:04:54.874Z,9.90
2018-11-12T10:08:02.611Z,9.90
2018-11-12T10:11:08.874Z,10.00
2018-11-12T10:14:12.868Z,10.00
2018-11-12T10:17:17.956Z,10.00
2018-11-12T10:20:20.096Z,10.10
2018-11-12T10:23:24.306Z,10.10
2018-11-12T10:26:28.588Z,10.10
2018-11-12T10:29:32.860Z,10.20
2018-11-12T10:32:37.203Z,10.20
2018-11-12T10:35:41.476Z,10.20
2018-11-12T10:38:45.760Z,10.20
2018-11-12T10:41:50.044Z,10.20
2018-11-12T10:44:54.295Z,10.20
2018-11-12T10:47:58.542Z,10.20
2018-11-12T10:51:05.170Z,10.20
2018-11-12T10:54:07.243Z,10.20
2018-11-12T10:57:11.405Z,10.30
2018-11-12T11:00:25.445Z,10.30
2018-11-12T11:03:37.860Z,10.30
2018-11-12T11:06:42.109Z,10.30
2018-11-12T11:09:46.475Z,10.30
2018-11-12T11:12:50.733Z,10.40
2018-11-12T11:15:54.989Z,10.40
2018-11-12T11:18:59.242Z,10.40
2018-11-12T11:22:03.528Z,10.40
2018-11-12T11:25:07.958Z,10.40
2018-11-12T11:28:12.220Z,10.40
2018-11-12T11:31:16.494Z,10.40
2018-11-12T11:34:21.144Z,10.40
2018-11-12T11:37:26.155Z,10.40
2018-11-12T11:40:30.425Z,10.40
2018-11-12T11:43:34.713Z,10.40
2018-11-12T11:46:38.976Z,10.40
2018-11-12T11:49:43.233Z,10.40
2018-11-12T11:52:47.581Z,10.50
2018-11-12T11:55:51.851Z,10.40
2018-11-12T11:58:56.132Z,10.50
2018-11-12T12:02:00.412Z,10.50
2018-11-12T12:05:05.069Z,10.50
2018-11-12T12:08:09.371Z,10.40
2018-11-12T12:11:13.620Z,10.50
2018-11-12T12:14:17.895Z,10.50
2018-11-12T12:17:22.153Z,10.50
2018-11-12T12:20:27.162Z,10.50
2018-11-12T12:23:31.460Z,10.50
2018-11-12T12:26:35.736Z,10.50
2018-11-12T12:29:39.980Z,10.50
2018-11-12T12:32:45.411Z,10.50
2018-11-12T12:35:49.682Z,10.50
2018-11-12T12:38:53.937Z,10.50
2018-11-12T12:41:58.544Z,10.50
2018-11-12T12:45:02.935Z,10.50
2018-11-12T12:48:07.081Z,10.50
2018-11-12T12:51:11.359Z,10.50
2018-11-12T12:54:15.627Z,10.50
2018-11-12T12:57:19.897Z,10.60
2018-11-12T13:00:25.483Z,10.60
2018-11-12T13:03:29.760Z,10.60
2018-11-12T13:06:34.033Z,10.60
2018-11-12T13:09:38.328Z,10.50
2018-11-12T13:12:42.713Z,10.60
2018-11-12T13:15:46.978Z,10.60
2018-11-12T13:18:51.241Z,10.60
2018-11-12T13:21:55.517Z,10.60
2018-11-12T13:24:59.808Z,10.60
2018-11-12T13:28:04.071Z,10.60
2018-11-12T13:31:08.323Z,10.50
2018-11-12T13:34:12.563Z,10.60
2018-11-12T13:37:16.921Z,10.60
2018-11-12T13:40:22.452Z,10.60
2018-11-12T13:43:26.766Z,10.60
2018-11-12T13:46:36.318Z,10.60
2018-11-12T13:49:40.522Z,10.60
2018-11-12T13:52:45.168Z,10.70
2018-11-12T13:55:49.419Z,10.60
2018-11-12T13:58:53.692Z,10.60
2018-11-12T14:01:57.926Z,10.60
2018-11-12T14:05:02.212Z,10.70
2018-11-12T14:08:06.597Z,10.60
2018-11-12T14:11:10.863Z,10.60
2018-11-12T14:14:15.112Z,10.70
2018-11-12T14:17:19.388Z,10.70
2018-11-12T14:20:24.340Z,10.70
2018-11-12T14:23:28.556Z,10.70
2018-11-12T14:26:32.925Z,10.60
2018-11-12T14:29:37.282Z,10.70
2018-11-12T14:32:41.534Z,10.70
2018-11-12T14:35:45.827Z,10.70
2018-11-12T14:38:50.525Z,10.60
2018-11-12T14:41:54.814Z,10.60
2018-11-12T14:44:59.172Z,10.60
2018-11-12T14:48:03.458Z,10.60
2018-11-12T14:51:07.742Z,10.60
2018-11-12T14:54:12.014Z,10.60
2018-11-12T14:57:16.283Z,10.60
2018-11-12T15:00:23.927Z,10.60
2018-11-12T15:03:28.188Z,10.60
2018-11-12T15:06:32.450Z,10.60
2018-11-12T15:09:36.718Z,10.60
2018-11-12T15:12:41.049Z,10.60
2018-11-12T15:15:45.375Z,10.70
2018-11-12T15:18:49.640Z,10.60
2018-11-12T15:21:53.921Z,10.60
2018-11-12T15:24:58.230Z,10.60
2018-11-12T15:28:02.518Z,10.60
2018-11-12T15:31:06.784Z,10.60
2018-11-12T15:34:11.039Z,10.70
2018-11-12T15:37:15.373Z,10.60
2018-11-12T15:40:19.625Z,10.60
2018-11-12T15:43:23.909Z,10.60
2018-11-12T15:46:28.212Z,10.60
2018-11-12T15:49:32.490Z,10.60
2018-11-12T15:52:36.761Z,10.60
2018-11-12T15:55:41.007Z,10.50
2018-11-12T15:58:45.279Z,10.50
2018-11-12T16:01:49.538Z,10.50
2018-11-12T16:04:53.795Z,10.50
2018-11-12T16:07:58.037Z,10.50
2018-11-12T16:11:02.313Z,10.40
2018-11-12T16:14:07.532Z,10.40
2018-11-12T16:17:11.825Z,10.40
2018-11-12T16:20:25.119Z,10.40
2018-11-12T16:23:29.403Z,10.40
2018-11-12T16:26:33.672Z,10.30
2018-11-12T16:29:37.973Z,10.30
2018-11-12T16:32:43.122Z,10.30
2018-11-12T16:35:47.319Z,10.30
2018-11-12T16:38:51.764Z,10.30
2018-11-12T16:41:55.996Z,10.30
2018-11-12T16:45:00.256Z,10.20
2018-11-12T16:48:04.506Z,10.20
2018-11-12T16:51:08.745Z,10.30
2018-11-12T16:54:13.044Z,10.30
2018-11-12T16:57:17.285Z,10.20
2018-11-12T17:00:22.844Z,10.20
2018-11-12T17:03:27.077Z,10.20
2018-11-12T17:06:31.388Z,10.20
2018-11-12T17:09:35.679Z,10.20
2018-11-12T17:12:40.816Z,10.20
2018-11-12T17:15:45.103Z,10.20
2018-11-12T17:18:49.336Z,10.20
2018-11-12T17:21:53.625Z,10.20
2018-11-12T17:24:57.884Z,10.10
2018-11-12T17:28:02.137Z,10.20
2018-11-12T17:31:06.540Z,10.10
2018-11-12T17:34:10.844Z,10.10
2018-11-12T17:37:15.094Z,10.10
2018-11-12T17:40:21.630Z,10.10
2018-11-12T17:43:26.676Z,10.10
2018-11-12T17:46:30.980Z,10.10
2018-11-12T17:49:35.241Z,10.10
2018-11-12T17:52:41.112Z,10.10
2018-11-12T17:55:45.360Z,10.00
2018-11-12T17:58:49.597Z,10.10
2018-11-12T18:01:53.861Z,10.00
2018-11-12T18:04:58.111Z,10.00
2018-11-12T18:08:02.348Z,10.00
2018-11-12T18:11:06.625Z,10.00
2018-11-12T18:14:12.032Z,10.00
2018-11-12T18:17:16.287Z,10.10
2018-11-12T18:20:24.377Z,10.00
2018-11-12T18:23:28.652Z,10.00
2018-11-12T18:26:32.897Z,10.10
2018-11-12T18:29:37.235Z,10.10
2018-11-12T18:32:41.652Z,10.10
2018-11-12T18:35:45.883Z,10.00
2018-11-12T18:38:50.188Z,10.10
2018-11-12T18:41:54.430Z,10.00
2018-11-12T18:44:58.718Z,10.00
2018-11-12T18:48:02.992Z,10.00
2018-11-12T18:51:07.294Z,10.00
2018-11-12T18:54:11.795Z,10.00
2018-11-12T18:57:16.131Z,10.00
2018-11-12T19:00:21.591Z,10.00
2018-11-12T19:03:25.865Z,10.00
2018-11-12T19:06:30.285Z,10.00
2018-11-12T19:09:34.569Z,10.00
2018-11-12T19:12:38.861Z,10.00
2018-11-12T19:15:43.124Z,9.90
2018-11-12T19:18:47.441Z,9.90
2018-11-12T19:21:51.704Z,9.90
2018-11-12T19:24:55.954Z,9.90
2018-11-12T19:28:00.222Z,9.90
2018-11-12T19:31:04.521Z,9.90
2018-11-12T19:34:08.787Z,9.80
2018-11-12T19:37:13.070Z,9.80
2018-11-12T19:40:19.531Z,9.70
2018-11-12T19:43:23.786Z,9.70
2018-11-12T19:46:28.061Z,9.70
2018-11-12T19:49:32.317Z,9.60
2018-11-12T19:52:36.594Z,9.60
2018-11-12T19:55:40.840Z,9.60
2018-11-12T19:58:45.117Z,9.60
2018-11-12T20:01:49.398Z,9.60
2018-11-12T20:04:53.707Z,9.60
2018-11-12T20:07:58.076Z,9.60
2018-11-12T20:11:02.307Z,9.50
2018-11-12T20:14:06.774Z,9.50
2018-11-12T20:17:11.047Z,9.50
2018-11-12T20:20:25.533Z,9.50
2018-11-12T20:23:29.789Z,9.50
2018-11-12T20:26:34.041Z,9.40
2018-11-12T20:29:38.286Z,9.40
2018-11-12T20:32:42.586Z,9.40
2018-11-12T20:35:46.836Z,9.30
2018-11-12T20:38:51.109Z,9.30
2018-11-12T20:41:55.362Z,9.30
2018-11-12T20:44:59.749Z,9.30
2018-11-12T20:48:04.051Z,9.30
2018-11-12T20:51:08.274Z,9.30
2018-11-12T20:54:12.550Z,9.20
2018-11-12T20:57:16.810Z,9.20
2018-11-12T21:00:24.394Z,9.20
2018-11-12T21:03:28.661Z,9.20
2018-11-12T21:06:32.928Z,9.30
2018-11-12T21:09:37.283Z,9.20
2018-11-12T21:12:41.492Z,9.20
2018-11-12T21:15:45.758Z,9.30
2018-11-12T21:18:50.008Z,9.20
2018-11-12T21:21:54.278Z,9.20
2018-11-12T21:24:58.630Z,9.10
2018-11-12T21:28:02.898Z,9.10
2018-11-12T21:31:07.168Z,9.00
2018-11-12T21:34:11.433Z,9.00
2018-11-12T21:37:15.755Z,8.90
2018-11-12T21:40:21.686Z,8.90
2018-11-12T21:43:26.226Z,8.80
2018-11-12T21:46:31.037Z,8.80
2018-11-12T21:49:35.371Z,8.80
2018-11-12T21:52:39.730Z,8.80
2018-11-12T21:55:44.026Z,8.80
2018-11-12T21:58:48.409Z,8.70
2018-11-12T22:01:52.577Z,8.70
2018-11-12T22:04:56.831Z,8.60
2018-11-12T22:08:01.301Z,8.60
2018-11-12T22:11:05.721Z,8.60
2018-11-12T22:14:09.967Z,8.50
2018-11-12T22:17:14.235Z,8.50
2018-11-12T22:20:19.801Z,8.50
2018-11-12T22:23:24.100Z,8.50
2018-11-12T22:26:28.341Z,8.50
2018-11-12T22:29:32.609Z,8.60
2018-11-12T22:32:36.862Z,8.60
2018-11-12T22:35:41.128Z,8.60
2018-11-12T22:38:45.421Z,8.50
2018-11-12T22:41:49.692Z,8.50
2018-11-12T22:44:53.948Z,8.50
2018-11-12T22:47:58.209Z,8.40
2018-11-12T22:51:02.504Z,8.40
2018-11-12T22:54:06.984Z,8.40
2018-11-12T22:57:11.200Z,8.30
2018-11-12T23:00:22.353Z,8.30
2018-11-12T23:03:26.624Z,8.30
2018-11-12T23:06:30.925Z,8.30
2018-11-12T23:09:35.194Z,8.30
2018-11-12T23:12:39.571Z,8.30
2018-11-12T23:15:43.759Z,8.30
2018-11-12T23:18:48.008Z,8.30
2018-11-12T23:21:52.259Z,8.40
2018-11-12T23:24:56.555Z,8.40
2018-11-12T23:28:00.841Z,8.50
2018-11-12T23:31:05.158Z,8.50
2018-11-12T23:34:09.457Z,8.60
2018-11-12T23:37:13.719Z,8.60
2018-11-12T23:40:17.998Z,8.60
2018-11-12T23:43:22.262Z,8.60
2018-11-12T23:46:26.517Z,8.70
2018-11-12T23:49:30.794Z,8.60
2018-11-12T23:52:35.027Z,8.60
2018-11-12T23:55:39.312Z,8.60
2018-11-12T23:58:43.569Z,8.60
